sensor_id;sensor_type;location;lat;lon;timestamp;pressure;altitude;pressure_sealevel;temperature;humidity
10470;BME280;5282;47.052;15.458;2024-02-28T00:00:08;97396.16;;;7.23;100.00
10470;BME280;5282;47.052;15.458;2024-02-28T00:02:36;97404.06;;;7.24;100.00
10470;BME280;5282;47.052;15.458;2024-02-28T00:05:05;97399.81;;;7.22;100.00
10470;BME280;5282;47.052;15.458;2024-02-28T00:07:32;97417.72;;;7.21;100.00
10470;BME280;5282;47.052;15.458;2024-02-28T00:10:00;97415.09;;;7.12;100.00
10470;BME280;5282;47.052;15.458;2024-02-28T00:12:29;97405.69;;;7.07;100.00
10470;BME280;5282;47.052;15.458;2024-02-28T00:14:56;97407.47;;;7.17;100.00
10470;BME280;5282;47.052;15.458;2024-02-28T00:17:23;97416.75;;;7.22;100.00
10470;BME280;5282;47.052;15.458;2024-02-28T00:19:51;97413.06;;;7.23;100.00
10470;BME280;5282;47.052;15.458;2024-02-28T00:22:19;97408.84;;;7.21;100.00
10470;BME280;5282;47.052;15.458;2024-02-28T00:24:46;97412.03;;;7.06;100.00
10470;BME280;5282;47.052;15.458;2024-02-28T00:27:13;97401.00;;;7.09;100.00
10470;BME280;5282;47.052;15.458;2024-02-28T00:29:41;97407.47;;;7.17;100.00
10470;BME280;5282;47.052;15.458;2024-02-28T00:32:08;97405.69;;;7.07;100.00
10470;BME280;5282;47.052;15.458;2024-02-28T00:34:35;97407.25;;;7.00;100.00
10470;BME280;5282;47.052;15.458;2024-02-28T00:37:02;97403.53;;;6.83;100.00
10470;BME280;5282;47.052;15.458;2024-02-28T00:39:30;97405.94;;;6.76;100.00
10470;BME280;5282;47.052;15.458;2024-02-28T00:41:57;97404.97;;;6.77;100.00
10470;BME280;5282;47.052;15.458;2024-02-28T00:44:24;97404.38;;;6.84;100.00
10470;BME280;5282;47.052;15.458;2024-02-28T00:46:51;97406.75;;;6.87;100.00
10470;BME280;5282;47.052;15.458;2024-02-28T00:49:17;97414.50;;;6.90;100.00
10470;BME280;5282;47.052;15.458;2024-02-28T00:51:46;97415.75;;;6.86;100.00
10470;BME280;5282;47.052;15.458;2024-02-28T00:54:12;97420.84;;;6.79;100.00
10470;BME280;5282;47.052;15.458;2024-02-28T00:56:41;97415.66;;;6.77;100.00
10470;BME280;5282;47.052;15.458;2024-02-28T00:59:08;97419.50;;;6.65;100.00
10470;BME280;5282;47.052;15.458;2024-02-28T01:01:36;97431.91;;;6.66;100.00
10470;BME280;5282;47.052;15.458;2024-02-28T01:04:05;97432.75;;;6.67;100.00
10470;BME280;5282;47.052;15.458;2024-02-28T01:06:41;97435.00;;;6.71;100.00
10470;BME280;5282;47.052;15.458;2024-02-28T01:09:09;97424.31;;;6.61;100.00
10470;BME280;5282;47.052;15.458;2024-02-28T01:11:49;97433.34;;;6.51;100.00
10470;BME280;5282;47.052;15.458;2024-02-28T01:14:26;97432.34;;;6.52;100.00
10470;BME280;5282;47.052;15.458;2024-02-28T01:16:55;97436.31;;;6.38;100.00
10470;BME280;5282;47.052;15.458;2024-02-28T01:19:37;97440.69;;;6.29;100.00
10470;BME280;5282;47.052;15.458;2024-02-28T01:22:12;97443.81;;;6.24;100.00
10470;BME280;5282;47.052;15.458;2024-02-28T01:24:40;97446.91;;;6.20;100.00
10470;BME280;5282;47.052;15.458;2024-02-28T01:27:12;97442.09;;;6.23;100.00
10470;BME280;5282;47.052;15.458;2024-02-28T01:29:49;97443.41;;;6.19;100.00
10470;BME280;5282;47.052;15.458;2024-02-28T01:32:24;97445.22;;;6.18;100.00
10470;BME280;5282;47.052;15.458;2024-02-28T01:34:53;97443.53;;;6.17;100.00
10470;BME280;5282;47.052;15.458;2024-02-28T01:37:31;97439.16;;;6.16;100.00
10470;BME280;5282;47.052;15.458;2024-02-28T01:39:59;97441.84;;;6.07;100.00
10470;BME280;5282;47.052;15.458;2024-02-28T01:42:30;97444.34;;;5.98;100.00
10470;BME280;5282;47.052;15.458;2024-02-28T01:44:59;97442.84;;;6.06;100.00
10470;BME280;5282;47.052;15.458;2024-02-28T01:47:27;97443.41;;;6.09;100.00
10470;BME280;5282;47.052;15.458;2024-02-28T01:50:00;97438.19;;;6.08;100.00
10470;BME280;5282;47.052;15.458;2024-02-28T01:52:32;97427.63;;;6.16;100.00
10470;BME280;5282;47.052;15.458;2024-02-28T01:55:01;97426.06;;;6.23;100.00
10470;BME280;5282;47.052;15.458;2024-02-28T01:57:32;97427.91;;;6.23;100.00
10470;BME280;5282;47.052;15.458;2024-02-28T01:59:59;97429.44;;;6.15;100.00
10470;BME280;5282;47.052;15.458;2024-02-28T02:02:27;97426.38;;;6.10;100.00
10470;BME280;5282;47.052;15.458;2024-02-28T02:04:54;97425.81;;;6.07;100.00
10470;BME280;5282;47.052;15.458;2024-02-28T02:07:23;97423.56;;;6.02;100.00
10470;BME280;5282;47.052;15.458;2024-02-28T02:09:56;97434.06;;;5.94;100.00
10470;BME280;5282;47.052;15.458;2024-02-28T02:12:24;97434.94;;;6.04;100.00
10470;BME280;5282;47.052;15.458;2024-02-28T02:14:52;97441.97;;;6.05;100.00
10470;BME280;5282;47.052;15.458;2024-02-28T02:17:19;97442.28;;;6.02;100.00
10470;BME280;5282;47.052;15.458;2024-02-28T02:19:46;97436.06;;;5.92;100.00
10470;BME280;5282;47.052;15.458;2024-02-28T02:22:13;97443.78;;;5.75;100.00
10470;BME280;5282;47.052;15.458;2024-02-28T02:24:42;97430.28;;;5.67;100.00
10470;BME280;5282;47.052;15.458;2024-02-28T02:27:09;97434.22;;;5.72;100.00
10470;BME280;5282;47.052;15.458;2024-02-28T02:29:36;97427.47;;;5.78;100.00
10470;BME280;5282;47.052;15.458;2024-02-28T02:32:03;97429.16;;;5.79;100.00
10470;BME280;5282;47.052;15.458;2024-02-28T02:34:32;97434.75;;;5.66;100.00
10470;BME280;5282;47.052;15.458;2024-02-28T02:36:59;97433.63;;;5.49;100.00
10470;BME280;5282;47.052;15.458;2024-02-28T02:39:26;97432.22;;;5.45;100.00
10470;BME280;5282;47.052;15.458;2024-02-28T02:41:56;97432.53;;;5.52;100.00
10470;BME280;5282;47.052;15.458;2024-02-28T02:44:24;97437.44;;;5.56;100.00
10470;BME280;5282;47.052;15.458;2024-02-28T02:46:51;97427.28;;;5.50;100.00
10470;BME280;5282;47.052;15.458;2024-02-28T02:49:18;97427.88;;;5.44;100.00
10470;BME280;5282;47.052;15.458;2024-02-28T02:51:45;97422.94;;;5.49;100.00
10470;BME280;5282;47.052;15.458;2024-02-28T02:54:12;97427.75;;;5.55;100.00
10470;BME280;5282;47.052;15.458;2024-02-28T02:56:41;97431.13;;;5.58;100.00
10470;BME280;5282;47.052;15.458;2024-02-28T02:59:09;97424.34;;;5.53;100.00
10470;BME280;5282;47.052;15.458;2024-02-28T03:01:36;97428.44;;;5.58;100.00
10470;BME280;5282;47.052;15.458;2024-02-28T03:04:04;97430.53;;;5.54;100.00
10470;BME280;5282;47.052;15.458;2024-02-28T03:06:31;97434.06;;;5.54;100.00
10470;BME280;5282;47.052;15.458;2024-02-28T03:09:00;97429.13;;;5.50;100.00
10470;BME280;5282;47.052;15.458;2024-02-28T03:11:27;97431.63;;;5.32;100.00
10470;BME280;5282;47.052;15.458;2024-02-28T03:13:55;97434.13;;;5.23;100.00
10470;BME280;5282;47.052;15.458;2024-02-28T03:16:23;97437.50;;;5.25;100.00
10470;BME280;5282;47.052;15.458;2024-02-28T03:19:08;97437.38;;;5.37;100.00
10470;BME280;5282;47.052;15.458;2024-02-28T03:21:37;97443.69;;;5.36;100.00
10470;BME280;5282;47.052;15.458;2024-02-28T03:24:04;97450.47;;;5.40;100.00
10470;BME280;5282;47.052;15.458;2024-02-28T03:26:32;97449.34;;;5.43;100.00
10470;BME280;5282;47.052;15.458;2024-02-28T03:29:00;97450.06;;;5.45;100.00
10470;BME280;5282;47.052;15.458;2024-02-28T03:31:29;97453.28;;;5.48;100.00
10470;BME280;5282;47.052;15.458;2024-02-28T03:33:56;97449.53;;;5.51;100.00
10470;BME280;5282;47.052;15.458;2024-02-28T03:36:24;97452.44;;;5.38;100.00
10470;BME280;5282;47.052;15.458;2024-02-28T03:38:51;97454.13;;;5.39;100.00
10470;BME280;5282;47.052;15.458;2024-02-28T03:41:17;97448.03;;;5.17;100.00
10470;BME280;5282;47.052;15.458;2024-02-28T03:43:44;97448.38;;;5.03;100.00
10470;BME280;5282;47.052;15.458;2024-02-28T03:46:11;97440.94;;;4.97;100.00
10470;BME280;5282;47.052;15.458;2024-02-28T03:48:40;97441.91;;;4.96;100.00
10470;BME280;5282;47.052;15.458;2024-02-28T03:51:06;97445.09;;;4.89;100.00
10470;BME280;5282;47.052;15.458;2024-02-28T03:53:34;97445.66;;;4.83;100.00
10470;BME280;5282;47.052;15.458;2024-02-28T03:56:00;97438.69;;;4.71;100.00
10470;BME280;5282;47.052;15.458;2024-02-28T03:58:28;97440.00;;;4.76;100.00
10470;BME280;5282;47.052;15.458;2024-02-28T04:00:55;97428.50;;;4.86;100.00
10470;BME280;5282;47.052;15.458;2024-02-28T04:03:22;97434.41;;;4.89;100.00
10470;BME280;5282;47.052;15.458;2024-02-28T04:05:50;97436.03;;;5.02;100.00
10470;BME280;5282;47.052;15.458;2024-02-28T04:08:17;97433.50;;;5.00;100.00
10470;BME280;5282;47.052;15.458;2024-02-28T04:10:44;97429.44;;;5.06;100.00
10470;BME280;5282;47.052;15.458;2024-02-28T04:13:11;97429.59;;;5.04;100.00
10470;BME280;5282;47.052;15.458;2024-02-28T04:15:38;97434.53;;;5.09;100.00
10470;BME280;5282;47.052;15.458;2024-02-28T04:18:05;97429.69;;;5.03;100.00
10470;BME280;5282;47.052;15.458;2024-02-28T04:20:32;97435.19;;;5.01;100.00
10470;BME280;5282;47.052;15.458;2024-02-28T04:23:00;97428.81;;;4.83;100.00
10470;BME280;5282;47.052;15.458;2024-02-28T04:25:28;97439.84;;;4.78;100.00
10470;BME280;5282;47.052;15.458;2024-02-28T04:27:54;97438.75;;;4.81;100.00
10470;BME280;5282;47.052;15.458;2024-02-28T04:30:22;97445.81;;;4.91;100.00
10470;BME280;5282;47.052;15.458;2024-02-28T04:32:49;97447.81;;;4.99;100.00
10470;BME280;5282;47.052;15.458;2024-02-28T04:35:16;97456.84;;;5.08;100.00
10470;BME280;5282;47.052;15.458;2024-02-28T04:37:44;97450.25;;;5.12;100.00
10470;BME280;5282;47.052;15.458;2024-02-28T04:40:13;97445.56;;;4.94;100.00
10470;BME280;5282;47.052;15.458;2024-02-28T04:42:41;97443.84;;;4.93;100.00
10470;BME280;5282;47.052;15.458;2024-02-28T04:45:09;97457.06;;;4.95;100.00
10470;BME280;5282;47.052;15.458;2024-02-28T04:47:36;97461.19;;;5.09;100.00
10470;BME280;5282;47.052;15.458;2024-02-28T04:50:04;97468.19;;;5.00;100.00
10470;BME280;5282;47.052;15.458;2024-02-28T04:52:31;97463.50;;;4.92;100.00
10470;BME280;5282;47.052;15.458;2024-02-28T04:54:59;97469.97;;;4.90;100.00
10470;BME280;5282;47.052;15.458;2024-02-28T04:57:27;97477.88;;;4.70;100.00
10470;BME280;5282;47.052;15.458;2024-02-28T04:59:54;97478.88;;;4.79;100.00
10470;BME280;5282;47.052;15.458;2024-02-28T05:02:21;97473.03;;;4.85;100.00
10470;BME280;5282;47.052;15.458;2024-02-28T05:04:48;97467.78;;;4.74;100.00
10470;BME280;5282;47.052;15.458;2024-02-28T05:07:15;97460.59;;;4.65;100.00
10470;BME280;5282;47.052;15.458;2024-02-28T05:09:42;97470.28;;;4.66;100.00
10470;BME280;5282;47.052;15.458;2024-02-28T05:12:09;97465.13;;;4.53;100.00
10470;BME280;5282;47.052;15.458;2024-02-28T05:14:38;97466.56;;;4.36;100.00
10470;BME280;5282;47.052;15.458;2024-02-28T05:17:05;97465.84;;;4.33;100.00
10470;BME280;5282;47.052;15.458;2024-02-28T05:19:32;97461.78;;;4.29;100.00
10470;BME280;5282;47.052;15.458;2024-02-28T05:21:59;97459.34;;;4.26;100.00
10470;BME280;5282;47.052;15.458;2024-02-28T05:24:27;97466.25;;;4.29;100.00
10470;BME280;5282;47.052;15.458;2024-02-28T05:26:54;97467.78;;;4.31;100.00
10470;BME280;5282;47.052;15.458;2024-02-28T05:29:21;97464.44;;;4.29;100.00
10470;BME280;5282;47.052;15.458;2024-02-28T05:31:49;97469.97;;;4.38;100.00
10470;BME280;5282;47.052;15.458;2024-02-28T05:34:16;97471.31;;;4.53;100.00
10470;BME280;5282;47.052;15.458;2024-02-28T05:36:43;97477.25;;;4.57;100.00
10470;BME280;5282;47.052;15.458;2024-02-28T05:39:10;97471.19;;;4.55;100.00
10470;BME280;5282;47.052;15.458;2024-02-28T05:41:37;97480.31;;;4.52;100.00
10470;BME280;5282;47.052;15.458;2024-02-28T05:44:05;97480.34;;;4.62;100.00
10470;BME280;5282;47.052;15.458;2024-02-28T05:46:32;97483.31;;;4.69;100.00
10470;BME280;5282;47.052;15.458;2024-02-28T05:49:00;97497.72;;;4.77;100.00
10470;BME280;5282;47.052;15.458;2024-02-28T05:51:28;97492.69;;;4.84;100.00
10470;BME280;5282;47.052;15.458;2024-02-28T05:53:55;97501.13;;;4.89;100.00
10470;BME280;5282;47.052;15.458;2024-02-28T05:56:22;97493.56;;;4.94;100.00
10470;BME280;5282;47.052;15.458;2024-02-28T05:58:49;97503.84;;;4.99;100.00
10470;BME280;5282;47.052;15.458;2024-02-28T06:01:16;97508.94;;;5.12;100.00
10470;BME280;5282;47.052;15.458;2024-02-28T06:03:45;97517.41;;;5.17;100.00
10470;BME280;5282;47.052;15.458;2024-02-28T06:06:13;97521.22;;;5.24;100.00
10470;BME280;5282;47.052;15.458;2024-02-28T06:08:41;97534.19;;;5.29;100.00
10470;BME280;5282;47.052;15.458;2024-02-28T06:11:07;97537.34;;;5.13;100.00
10470;BME280;5282;47.052;15.458;2024-02-28T06:13:36;97538.19;;;5.14;100.00
10470;BME280;5282;47.052;15.458;2024-02-28T06:16:03;97530.75;;;5.17;100.00
10470;BME280;5282;47.052;15.458;2024-02-28T06:18:30;97541.28;;;5.09;100.00
10470;BME280;5282;47.052;15.458;2024-02-28T06:20:59;97545.81;;;5.18;100.00
10470;BME280;5282;47.052;15.458;2024-02-28T06:23:27;97544.81;;;5.19;100.00
10470;BME280;5282;47.052;15.458;2024-02-28T06:25:55;97546.88;;;5.06;100.00
10470;BME280;5282;47.052;15.458;2024-02-28T06:28:22;97542.19;;;4.98;100.00
10470;BME280;5282;47.052;15.458;2024-02-28T06:30:48;97546.28;;;5.02;100.00
10470;BME280;5282;47.052;15.458;2024-02-28T06:33:15;97555.53;;;4.98;100.00
10470;BME280;5282;47.052;15.458;2024-02-28T06:35:42;97560.28;;;4.73;100.00
10470;BME280;5282;47.052;15.458;2024-02-28T06:38:09;97563.09;;;4.72;100.00
10470;BME280;5282;47.052;15.458;2024-02-28T06:40:37;97566.41;;;4.85;100.00
10470;BME280;5282;47.052;15.458;2024-02-28T06:43:04;97571.44;;;5.00;100.00
10470;BME280;5282;47.052;15.458;2024-02-28T06:45:31;97581.69;;;5.04;100.00
10470;BME280;5282;47.052;15.458;2024-02-28T06:47:58;97589.97;;;5.01;100.00
10470;BME280;5282;47.052;15.458;2024-02-28T06:50:25;97583.16;;;5.18;100.00
10470;BME280;5282;47.052;15.458;2024-02-28T06:52:52;97582.94;;;5.00;100.00
10470;BME280;5282;47.052;15.458;2024-02-28T06:55:19;97586.34;;;5.12;100.00
10470;BME280;5282;47.052;15.458;2024-02-28T06:57:48;97587.38;;;5.11;100.00
10470;BME280;5282;47.052;15.458;2024-02-28T07:00:15;97586.78;;;5.38;100.00
10470;BME280;5282;47.052;15.458;2024-02-28T07:02:44;97587.41;;;5.52;100.00
10470;BME280;5282;47.052;15.458;2024-02-28T07:05:12;97593.50;;;5.64;100.00
10470;BME280;5282;47.052;15.458;2024-02-28T07:07:40;97587.75;;;5.68;100.00
10470;BME280;5282;47.052;15.458;2024-02-28T07:10:07;97589.19;;;5.82;100.00
10470;BME280;5282;47.052;15.458;2024-02-28T07:12:34;97590.31;;;5.80;100.00
10470;BME280;5282;47.052;15.458;2024-02-28T07:15:02;97596.53;;;5.80;100.00
10470;BME280;5282;47.052;15.458;2024-02-28T07:17:31;97599.09;;;5.92;100.00
10470;BME280;5282;47.052;15.458;2024-02-28T07:19:57;97603.94;;;6.08;100.00
10470;BME280;5282;47.052;15.458;2024-02-28T07:22:25;97595.63;;;6.21;100.00
10470;BME280;5282;47.052;15.458;2024-02-28T07:24:51;97596.88;;;6.16;100.00
10470;BME280;5282;47.052;15.458;2024-02-28T07:27:18;97600.03;;;6.41;100.00
10470;BME280;5282;47.052;15.458;2024-02-28T07:29:45;97603.69;;;6.40;100.00
10470;BME280;5282;47.052;15.458;2024-02-28T07:32:13;97597.75;;;6.17;100.00
10470;BME280;5282;47.052;15.458;2024-02-28T07:34:40;97593.09;;;6.29;100.00
10470;BME280;5282;47.052;15.458;2024-02-28T07:37:08;97593.81;;;6.51;100.00
10470;BME280;5282;47.052;15.458;2024-02-28T07:39:34;97604.84;;;6.77;100.00
10470;BME280;5282;47.052;15.458;2024-02-28T07:42:01;97592.72;;;6.83;100.00
10470;BME280;5282;47.052;15.458;2024-02-28T07:44:28;97588.19;;;6.73;100.00
10470;BME280;5282;47.052;15.458;2024-02-28T07:46:56;97589.06;;;6.84;100.00
10470;BME280;5282;47.052;15.458;2024-02-28T07:49:25;97587.31;;;6.92;100.00
10470;BME280;5282;47.052;15.458;2024-02-28T07:51:53;97591.69;;;7.03;100.00
10470;BME280;5282;47.052;15.458;2024-02-28T07:54:20;97595.63;;;7.19;100.00
10470;BME280;5282;47.052;15.458;2024-02-28T07:56:48;97598.69;;;7.24;100.00
10470;BME280;5282;47.052;15.458;2024-02-28T07:59:15;97598.34;;;7.37;100.00
10470;BME280;5282;47.052;15.458;2024-02-28T08:01:42;97599.31;;;7.46;100.00
10470;BME280;5282;47.052;15.458;2024-02-28T08:04:09;97605.13;;;7.41;100.00
10470;BME280;5282;47.052;15.458;2024-02-28T08:06:39;97607.09;;;7.39;100.00
10470;BME280;5282;47.052;15.458;2024-02-28T08:09:06;97602.09;;;7.54;100.00
10470;BME280;5282;47.052;15.458;2024-02-28T08:11:33;97598.00;;;7.60;100.00
10470;BME280;5282;47.052;15.458;2024-02-28T08:14:01;97601.00;;;7.56;100.00
10470;BME280;5282;47.052;15.458;2024-02-28T08:16:29;97589.28;;;7.57;100.00
10470;BME280;5282;47.052;15.458;2024-02-28T08:18:56;97596.75;;;7.54;100.00
10470;BME280;5282;47.052;15.458;2024-02-28T08:21:24;97590.00;;;7.50;100.00
10470;BME280;5282;47.052;15.458;2024-02-28T08:23:53;97596.53;;;7.37;100.00
10470;BME280;5282;47.052;15.458;2024-02-28T08:26:20;97598.41;;;7.27;100.00
10470;BME280;5282;47.052;15.458;2024-02-28T08:28:47;97607.41;;;7.26;100.00
10470;BME280;5282;47.052;15.458;2024-02-28T08:31:14;97608.16;;;7.56;100.00
10470;BME280;5282;47.052;15.458;2024-02-28T08:33:41;97610.97;;;7.92;100.00
10470;BME280;5282;47.052;15.458;2024-02-28T08:36:08;97609.88;;;8.13;100.00
10470;BME280;5282;47.052;15.458;2024-02-28T08:38:34;97603.75;;;8.21;100.00
10470;BME280;5282;47.052;15.458;2024-02-28T08:41:05;97601.81;;;8.13;100.00
10470;BME280;5282;47.052;15.458;2024-02-28T08:43:33;97604.06;;;8.17;100.00
10470;BME280;5282;47.052;15.458;2024-02-28T08:46:00;97611.50;;;8.24;100.00
10470;BME280;5282;47.052;15.458;2024-02-28T08:48:27;97615.66;;;8.36;100.00
10470;BME280;5282;47.052;15.458;2024-02-28T08:50:54;97623.78;;;8.44;100.00
10470;BME280;5282;47.052;15.458;2024-02-28T08:53:21;97627.63;;;8.42;100.00
10470;BME280;5282;47.052;15.458;2024-02-28T08:55:48;97627.03;;;8.48;100.00
10470;BME280;5282;47.052;15.458;2024-02-28T08:58:16;97621.84;;;8.64;100.00
10470;BME280;5282;47.052;15.458;2024-02-28T09:00:43;97625.84;;;8.78;100.00
10470;BME280;5282;47.052;15.458;2024-02-28T09:03:10;97622.19;;;9.06;100.00
10470;BME280;5282;47.052;15.458;2024-02-28T09:05:37;97621.25;;;9.15;100.00
10470;BME280;5282;47.052;15.458;2024-02-28T09:08:05;97623.53;;;9.02;100.00
10470;BME280;5282;47.052;15.458;2024-02-28T09:10:33;97630.88;;;9.18;100.00
10470;BME280;5282;47.052;15.458;2024-02-28T09:13:00;97634.50;;;9.35;100.00
10470;BME280;5282;47.052;15.458;2024-02-28T09:15:28;97629.09;;;9.53;100.00
10470;BME280;5282;47.052;15.458;2024-02-28T09:17:55;97629.66;;;9.65;100.00
10470;BME280;5282;47.052;15.458;2024-02-28T09:20:22;97629.56;;;9.75;100.00
10470;BME280;5282;47.052;15.458;2024-02-28T09:22:49;97626.69;;;9.76;100.00
10470;BME280;5282;47.052;15.458;2024-02-28T09:25:16;97632.47;;;9.90;100.00
10470;BME280;5282;47.052;15.458;2024-02-28T09:27:43;97622.34;;;10.18;100.00
10470;BME280;5282;47.052;15.458;2024-02-28T09:30:11;97611.63;;;9.83;100.00
10470;BME280;5282;47.052;15.458;2024-02-28T09:32:39;97616.66;;;9.86;100.00
10470;BME280;5282;47.052;15.458;2024-02-28T09:35:06;97617.03;;;9.92;100.00
10470;BME280;5282;47.052;15.458;2024-02-28T09:37:33;97623.31;;;10.09;100.00
10470;BME280;5282;47.052;15.458;2024-02-28T09:40:00;97627.50;;;10.46;100.00
10470;BME280;5282;47.052;15.458;2024-02-28T09:42:28;97629.03;;;10.65;100.00
10470;BME280;5282;47.052;15.458;2024-02-28T09:44:55;97632.25;;;10.77;100.00
10470;BME280;5282;47.052;15.458;2024-02-28T09:47:27;97634.44;;;10.90;100.00
10470;BME280;5282;47.052;15.458;2024-02-28T09:49:57;97640.53;;;10.84;100.00
10470;BME280;5282;47.052;15.458;2024-02-28T09:52:24;97638.34;;;11.04;100.00
10470;BME280;5282;47.052;15.458;2024-02-28T09:54:53;97634.78;;;11.11;100.00
10470;BME280;5282;47.052;15.458;2024-02-28T09:57:21;97635.66;;;11.12;100.00
10470;BME280;5282;47.052;15.458;2024-02-28T09:59:54;97638.84;;;11.16;100.00
10470;BME280;5282;47.052;15.458;2024-02-28T10:02:23;97635.59;;;10.71;100.00
10470;BME280;5282;47.052;15.458;2024-02-28T10:04:52;97640.66;;;10.82;100.00
10470;BME280;5282;47.052;15.458;2024-02-28T10:07:20;97636.13;;;11.24;100.00
10470;BME280;5282;47.052;15.458;2024-02-28T10:09:47;97638.28;;;11.53;100.00
10470;BME280;5282;47.052;15.458;2024-02-28T10:12:14;97635.63;;;11.37;100.00
10470;BME280;5282;47.052;15.458;2024-02-28T10:14:41;97636.50;;;11.21;100.00
10470;BME280;5282;47.052;15.458;2024-02-28T10:17:08;97642.22;;;11.09;100.00
10470;BME280;5282;47.052;15.458;2024-02-28T10:19:35;97642.91;;;11.20;100.00
10470;BME280;5282;47.052;15.458;2024-02-28T10:22:02;97635.09;;;11.50;100.00
10470;BME280;5282;47.052;15.458;2024-02-28T10:24:32;97632.97;;;11.93;100.00
10470;BME280;5282;47.052;15.458;2024-02-28T10:27:01;97636.47;;;12.10;100.00
10470;BME280;5282;47.052;15.458;2024-02-28T10:29:28;97629.25;;;12.02;100.00
10470;BME280;5282;47.052;15.458;2024-02-28T10:31:58;97633.28;;;12.07;100.00
10470;BME280;5282;47.052;15.458;2024-02-28T10:34:25;97628.47;;;12.25;100.00
10470;BME280;5282;47.052;15.458;2024-02-28T10:36:52;97632.22;;;12.56;100.00
10470;BME280;5282;47.052;15.458;2024-02-28T10:39:21;97631.59;;;12.77;100.00
10470;BME280;5282;47.052;15.458;2024-02-28T10:41:50;97630.38;;;12.79;100.00
10470;BME280;5282;47.052;15.458;2024-02-28T10:44:20;97629.66;;;13.09;100.00
10470;BME280;5282;47.052;15.458;2024-02-28T10:46:49;97630.31;;;13.11;100.00
10470;BME280;5282;47.052;15.458;2024-02-28T10:49:16;97629.41;;;13.19;100.00
10470;BME280;5282;47.052;15.458;2024-02-28T10:51:45;97626.72;;;12.95;100.00
10470;BME280;5282;47.052;15.458;2024-02-28T10:54:13;97625.50;;;13.21;100.00
10470;BME280;5282;47.052;15.458;2024-02-28T10:56:41;97629.03;;;13.45;100.00
10470;BME280;5282;47.052;15.458;2024-02-28T10:59:10;97626.34;;;13.45;100.00
10470;BME280;5282;47.052;15.458;2024-02-28T11:01:40;97623.06;;;13.50;100.00
10470;BME280;5282;47.052;15.458;2024-02-28T11:04:09;97624.66;;;13.44;100.00
10470;BME280;5282;47.052;15.458;2024-02-28T11:06:47;97634.38;;;13.30;100.00
10470;BME280;5282;47.052;15.458;2024-02-28T11:09:19;97641.75;;;13.36;100.00
10470;BME280;5282;47.052;15.458;2024-02-28T11:11:48;97635.66;;;12.73;100.00
10470;BME280;5282;47.052;15.458;2024-02-28T11:14:19;97640.69;;;13.22;100.00
10470;BME280;5282;47.052;15.458;2024-02-28T11:16:48;97636.19;;;13.38;100.00
10470;BME280;5282;47.052;15.458;2024-02-28T11:19:28;97642.69;;;13.29;100.00
10470;BME280;5282;47.052;15.458;2024-02-28T11:21:55;97638.16;;;13.44;100.00
10470;BME280;5282;47.052;15.458;2024-02-28T11:24:23;97637.69;;;13.40;100.00
10470;BME280;5282;47.052;15.458;2024-02-28T11:26:50;97639.19;;;13.43;100.00
10470;BME280;5282;47.052;15.458;2024-02-28T11:29:24;97642.69;;;13.29;100.00
10470;BME280;5282;47.052;15.458;2024-02-28T11:31:51;97634.59;;;13.29;100.00
10470;BME280;5282;47.052;15.458;2024-02-28T11:34:18;97631.38;;;13.48;100.00
10470;BME280;5282;47.052;15.458;2024-02-28T11:36:47;97631.97;;;13.35;100.00
10470;BME280;5282;47.052;15.458;2024-02-28T11:39:15;97635.06;;;13.32;100.00
10470;BME280;5282;47.052;15.458;2024-02-28T11:41:42;97633.66;;;13.75;100.00
10470;BME280;5282;47.052;15.458;2024-02-28T11:44:12;97631.47;;;13.40;100.00
10470;BME280;5282;47.052;15.458;2024-02-28T11:46:44;97634.47;;;13.75;100.00
10470;BME280;5282;47.052;15.458;2024-02-28T11:49:11;97625.72;;;14.03;100.00
10470;BME280;5282;47.052;15.458;2024-02-28T11:51:40;97634.66;;;13.88;100.00
10470;BME280;5282;47.052;15.458;2024-02-28T11:54:07;97636.16;;;13.76;100.00
10470;BME280;5282;47.052;15.458;2024-02-28T11:56:34;97641.72;;;13.45;100.00
10470;BME280;5282;47.052;15.458;2024-02-28T11:59:01;97636.34;;;13.60;100.00
10470;BME280;5282;47.052;15.458;2024-02-28T12:01:37;97630.22;;;13.96;100.00
10470;BME280;5282;47.052;15.458;2024-02-28T12:04:05;97631.28;;;13.56;100.00
10470;BME280;5282;47.052;15.458;2024-02-28T12:06:34;97634.00;;;13.71;100.00
10470;BME280;5282;47.052;15.458;2024-02-28T12:09:02;97626.38;;;13.90;100.00
10470;BME280;5282;47.052;15.458;2024-02-28T12:11:29;97633.06;;;14.09;100.00
10470;BME280;5282;47.052;15.458;2024-02-28T12:13:56;97625.97;;;13.48;100.00
10470;BME280;5282;47.052;15.458;2024-02-28T12:16:24;97618.22;;;13.45;100.00
10470;BME280;5282;47.052;15.458;2024-02-28T12:18:51;97625.50;;;13.21;100.00
10470;BME280;5282;47.052;15.458;2024-02-28T12:21:20;97622.38;;;13.71;100.00
10470;BME280;5282;47.052;15.458;2024-02-28T12:23:47;97627.75;;;13.56;100.00
10470;BME280;5282;47.052;15.458;2024-02-28T12:26:16;97616.75;;;13.87;100.00
10470;BME280;5282;47.052;15.458;2024-02-28T12:28:44;97620.31;;;14.03;100.00
10470;BME280;5282;47.052;15.458;2024-02-28T12:31:11;97623.84;;;14.18;100.00
10470;BME280;5282;47.052;15.458;2024-02-28T12:33:38;97615.81;;;14.10;100.00
10470;BME280;5282;47.052;15.458;2024-02-28T12:36:06;97612.38;;;14.16;100.00
10470;BME280;5282;47.052;15.458;2024-02-28T12:38:34;97607.41;;;14.57;100.00
10470;BME280;5282;47.052;15.458;2024-02-28T12:41:01;97611.97;;;14.34;100.00
10470;BME280;5282;47.052;15.458;2024-02-28T12:43:29;97601.53;;;14.53;100.00
10470;BME280;5282;47.052;15.458;2024-02-28T12:45:56;97605.84;;;14.47;100.00
10470;BME280;5282;47.052;15.458;2024-02-28T12:48:23;97598.66;;;14.55;100.00
10470;BME280;5282;47.052;15.458;2024-02-28T12:50:50;97598.97;;;14.45;100.00
10470;BME280;5282;47.052;15.458;2024-02-28T12:53:17;97593.66;;;14.22;100.00
10470;BME280;5282;47.052;15.458;2024-02-28T12:55:45;97595.09;;;14.17;100.00
10470;BME280;5282;47.052;15.458;2024-02-28T12:58:12;97589.59;;;14.47;100.00
10470;BME280;5282;47.052;15.458;2024-02-28T13:00:39;97589.13;;;14.80;100.00